Terminal Aerodrome Forecast
Issued by NWS Green Bay, WI

Home | Current Version | Previous Version | Text Only | Print | Product List | Glossary On
Versions: 1 2 3 4 5 6 7 8 9 10 11 12 13 14 15 16 17
000
FTUS43 KGRB 291826 AAA
TAFGRB
TAF AMD
KGRB 291826Z 2918/3018 06008KT P6SM BKN060
     FM300000 06005KT P6SM SCT060
     FM300900 04008KT P6SM SCT040
     FM301500 05010G16KT P6SM SCT035=

USA.gov is the U.S. government's official web portal to all federal, state and local government web resources and services.